sensor_id;sensor_type;location;lat;lon;timestamp;P1;durP1;ratioP1;P2;durP2;ratioP2
16101;SDS011;56411;52.964;10.540;2023-04-25T00:00:21;11.70;;;5.33;;
16101;SDS011;56411;52.964;10.540;2023-04-25T00:02:50;11.93;;;4.60;;
16101;SDS011;56411;52.964;10.540;2023-04-25T00:05:17;11.60;;;4.43;;
16101;SDS011;56411;52.964;10.540;2023-04-25T00:07:48;11.73;;;4.77;;
16101;SDS011;56411;52.964;10.540;2023-04-25T00:10:15;10.43;;;4.50;;
16101;SDS011;56411;52.964;10.540;2023-04-25T00:12:42;12.97;;;4.80;;
16101;SDS011;56411;52.964;10.540;2023-04-25T00:15:09;13.13;;;4.97;;
16101;SDS011;56411;52.964;10.540;2023-04-25T00:17:37;11.13;;;4.93;;
16101;SDS011;56411;52.964;10.540;2023-04-25T00:20:06;10.67;;;5.10;;
16101;SDS011;56411;52.964;10.540;2023-04-25T00:22:34;12.67;;;5.13;;
16101;SDS011;56411;52.964;10.540;2023-04-25T00:25:02;14.20;;;5.50;;
16101;SDS011;56411;52.964;10.540;2023-04-25T00:27:30;12.67;;;5.87;;
16101;SDS011;56411;52.964;10.540;2023-04-25T00:29:57;13.73;;;6.40;;
16101;SDS011;56411;52.964;10.540;2023-04-25T00:32:25;15.97;;;7.07;;
16101;SDS011;56411;52.964;10.540;2023-04-25T00:34:52;13.57;;;6.70;;
16101;SDS011;56411;52.964;10.540;2023-04-25T00:37:22;16.50;;;7.47;;
16101;SDS011;56411;52.964;10.540;2023-04-25T00:39:49;15.83;;;6.90;;
16101;SDS011;56411;52.964;10.540;2023-04-25T00:42:18;16.97;;;7.23;;
16101;SDS011;56411;52.964;10.540;2023-04-25T00:44:46;16.77;;;8.20;;
16101;SDS011;56411;52.964;10.540;2023-04-25T00:47:13;21.47;;;9.50;;
16101;SDS011;56411;52.964;10.540;2023-04-25T00:49:41;21.83;;;10.80;;
16101;SDS011;56411;52.964;10.540;2023-04-25T00:52:09;20.73;;;10.43;;
16101;SDS011;56411;52.964;10.540;2023-04-25T00:54:38;20.80;;;11.07;;
16101;SDS011;56411;52.964;10.540;2023-04-25T00:57:05;19.80;;;10.03;;
16101;SDS011;56411;52.964;10.540;2023-04-25T00:59:32;21.57;;;11.20;;
16101;SDS011;56411;52.964;10.540;2023-04-25T01:02:00;18.90;;;10.27;;
16101;SDS011;56411;52.964;10.540;2023-04-25T01:04:27;18.83;;;9.30;;
16101;SDS011;56411;52.964;10.540;2023-04-25T01:06:54;22.10;;;10.70;;
16101;SDS011;56411;52.964;10.540;2023-04-25T01:09:22;17.80;;;9.67;;
16101;SDS011;56411;52.964;10.540;2023-04-25T01:11:51;21.13;;;8.77;;
16101;SDS011;56411;52.964;10.540;2023-04-25T01:14:18;19.70;;;9.00;;
16101;SDS011;56411;52.964;10.540;2023-04-25T01:16:45;18.27;;;8.87;;
16101;SDS011;56411;52.964;10.540;2023-04-25T01:19:13;17.23;;;8.17;;
16101;SDS011;56411;52.964;10.540;2023-04-25T01:21:44;17.23;;;8.43;;
16101;SDS011;56411;52.964;10.540;2023-04-25T01:24:11;18.03;;;7.27;;
16101;SDS011;56411;52.964;10.540;2023-04-25T01:26:40;16.37;;;7.60;;
16101;SDS011;56411;52.964;10.540;2023-04-25T01:32:31;18.43;;;7.10;;
16101;SDS011;56411;52.964;10.540;2023-04-25T01:35:03;14.87;;;7.43;;
16101;SDS011;56411;52.964;10.540;2023-04-25T01:37:35;14.93;;;7.20;;
16101;SDS011;56411;52.964;10.540;2023-04-25T01:40:03;16.97;;;6.73;;
16101;SDS011;56411;52.964;10.540;2023-04-25T01:42:31;16.20;;;7.77;;
16101;SDS011;56411;52.964;10.540;2023-04-25T01:44:58;16.30;;;7.70;;
16101;SDS011;56411;52.964;10.540;2023-04-25T01:47:25;14.47;;;7.23;;
16101;SDS011;56411;52.964;10.540;2023-04-25T01:49:52;17.30;;;7.93;;
16101;SDS011;56411;52.964;10.540;2023-04-25T01:52:19;17.77;;;8.67;;
16101;SDS011;56411;52.964;10.540;2023-04-25T01:54:48;14.70;;;7.67;;
16101;SDS011;56411;52.964;10.540;2023-04-25T01:57:15;15.63;;;7.47;;
16101;SDS011;56411;52.964;10.540;2023-04-25T01:59:42;19.90;;;7.90;;
16101;SDS011;56411;52.964;10.540;2023-04-25T02:02:10;16.77;;;7.20;;
16101;SDS011;56411;52.964;10.540;2023-04-25T02:04:37;15.33;;;7.30;;
16101;SDS011;56411;52.964;10.540;2023-04-25T02:07:04;19.30;;;7.63;;
16101;SDS011;56411;52.964;10.540;2023-04-25T02:12:54;15.27;;;6.27;;
16101;SDS011;56411;52.964;10.540;2023-04-25T02:15:22;17.23;;;6.20;;
16101;SDS011;56411;52.964;10.540;2023-04-25T02:17:50;18.97;;;6.17;;
16101;SDS011;56411;52.964;10.540;2023-04-25T02:20:17;17.87;;;6.57;;
16101;SDS011;56411;52.964;10.540;2023-04-25T02:22:45;14.50;;;5.83;;
16101;SDS011;56411;52.964;10.540;2023-04-25T02:25:12;19.03;;;6.40;;
16101;SDS011;56411;52.964;10.540;2023-04-25T02:27:40;19.33;;;6.30;;
16101;SDS011;56411;52.964;10.540;2023-04-25T02:30:09;21.23;;;7.03;;
16101;SDS011;56411;52.964;10.540;2023-04-25T02:32:37;19.07;;;6.00;;
16101;SDS011;56411;52.964;10.540;2023-04-25T02:35:05;20.13;;;5.90;;
16101;SDS011;56411;52.964;10.540;2023-04-25T02:37:35;20.67;;;6.37;;
16101;SDS011;56411;52.964;10.540;2023-04-25T02:40:03;16.03;;;6.30;;
16101;SDS011;56411;52.964;10.540;2023-04-25T02:42:31;21.17;;;6.37;;
16101;SDS011;56411;52.964;10.540;2023-04-25T02:44:58;24.80;;;6.30;;
16101;SDS011;56411;52.964;10.540;2023-04-25T02:47:27;23.07;;;6.70;;
16101;SDS011;56411;52.964;10.540;2023-04-25T02:49:54;18.87;;;6.30;;
16101;SDS011;56411;52.964;10.540;2023-04-25T02:52:21;20.47;;;6.57;;
16101;SDS011;56411;52.964;10.540;2023-04-25T02:54:48;22.17;;;5.60;;
16101;SDS011;56411;52.964;10.540;2023-04-25T02:57:15;25.17;;;6.37;;
16101;SDS011;56411;52.964;10.540;2023-04-25T02:59:45;22.47;;;5.67;;
16101;SDS011;56411;52.964;10.540;2023-04-25T03:02:12;22.90;;;5.53;;
16101;SDS011;56411;52.964;10.540;2023-04-25T03:04:41;24.87;;;6.13;;
16101;SDS011;56411;52.964;10.540;2023-04-25T03:07:11;23.13;;;5.70;;
16101;SDS011;56411;52.964;10.540;2023-04-25T03:09:38;22.47;;;5.30;;
16101;SDS011;56411;52.964;10.540;2023-04-25T03:15:34;19.27;;;5.23;;
16101;SDS011;56411;52.964;10.540;2023-04-25T03:18:02;18.20;;;5.10;;
16101;SDS011;56411;52.964;10.540;2023-04-25T03:20:31;20.50;;;5.57;;
16101;SDS011;56411;52.964;10.540;2023-04-25T03:22:58;25.73;;;6.13;;
16101;SDS011;56411;52.964;10.540;2023-04-25T03:25:25;23.93;;;5.30;;
16101;SDS011;56411;52.964;10.540;2023-04-25T03:27:52;20.60;;;5.70;;
16101;SDS011;56411;52.964;10.540;2023-04-25T03:30:19;23.47;;;6.03;;
16101;SDS011;56411;52.964;10.540;2023-04-25T03:32:46;20.80;;;5.33;;
16101;SDS011;56411;52.964;10.540;2023-04-25T03:35:13;19.70;;;6.10;;
16101;SDS011;56411;52.964;10.540;2023-04-25T03:37:41;25.73;;;6.00;;
16101;SDS011;56411;52.964;10.540;2023-04-25T03:40:10;24.43;;;5.33;;
16101;SDS011;56411;52.964;10.540;2023-04-25T03:42:37;22.17;;;6.03;;
16101;SDS011;56411;52.964;10.540;2023-04-25T03:45:05;26.03;;;5.83;;
16101;SDS011;56411;52.964;10.540;2023-04-25T03:47:33;19.97;;;5.40;;
16101;SDS011;56411;52.964;10.540;2023-04-25T03:50:00;24.87;;;5.73;;
16101;SDS011;56411;52.964;10.540;2023-04-25T03:52:28;23.67;;;5.10;;
16101;SDS011;56411;52.964;10.540;2023-04-25T03:54:56;25.43;;;5.50;;
16101;SDS011;56411;52.964;10.540;2023-04-25T03:57:24;23.37;;;6.03;;
16101;SDS011;56411;52.964;10.540;2023-04-25T03:59:50;21.33;;;5.43;;
16101;SDS011;56411;52.964;10.540;2023-04-25T04:02:17;24.00;;;6.50;;
16101;SDS011;56411;52.964;10.540;2023-04-25T04:04:44;25.07;;;6.73;;
16101;SDS011;56411;52.964;10.540;2023-04-25T04:07:11;18.97;;;5.83;;
16101;SDS011;56411;52.964;10.540;2023-04-25T04:09:38;27.43;;;6.60;;
16101;SDS011;56411;52.964;10.540;2023-04-25T04:12:07;20.20;;;5.47;;
16101;SDS011;56411;52.964;10.540;2023-04-25T04:14:34;25.30;;;5.93;;
16101;SDS011;56411;52.964;10.540;2023-04-25T04:17:01;20.37;;;5.43;;
16101;SDS011;56411;52.964;10.540;2023-04-25T04:19:28;28.13;;;6.67;;
16101;SDS011;56411;52.964;10.540;2023-04-25T04:21:55;20.03;;;5.50;;
16101;SDS011;56411;52.964;10.540;2023-04-25T04:24:22;18.30;;;5.40;;
16101;SDS011;56411;52.964;10.540;2023-04-25T04:26:50;23.87;;;6.30;;
16101;SDS011;56411;52.964;10.540;2023-04-25T04:29:18;25.90;;;7.43;;
16101;SDS011;56411;52.964;10.540;2023-04-25T04:31:47;17.30;;;5.60;;
16101;SDS011;56411;52.964;10.540;2023-04-25T04:34:14;20.83;;;5.37;;
16101;SDS011;56411;52.964;10.540;2023-04-25T04:36:42;23.90;;;5.90;;
16101;SDS011;56411;52.964;10.540;2023-04-25T04:39:12;20.17;;;6.23;;
16101;SDS011;56411;52.964;10.540;2023-04-25T04:41:39;20.40;;;5.40;;
16101;SDS011;56411;52.964;10.540;2023-04-25T04:44:07;22.20;;;5.30;;
16101;SDS011;56411;52.964;10.540;2023-04-25T04:46:36;19.53;;;5.43;;
16101;SDS011;56411;52.964;10.540;2023-04-25T04:49:07;22.07;;;5.30;;
16101;SDS011;56411;52.964;10.540;2023-04-25T04:51:34;21.57;;;5.80;;
16101;SDS011;56411;52.964;10.540;2023-04-25T04:54:02;23.17;;;5.50;;
16101;SDS011;56411;52.964;10.540;2023-04-25T04:56:29;28.50;;;6.30;;
16101;SDS011;56411;52.964;10.540;2023-04-25T04:58:56;27.60;;;5.87;;
16101;SDS011;56411;52.964;10.540;2023-04-25T05:01:24;25.07;;;6.47;;
16101;SDS011;56411;52.964;10.540;2023-04-25T05:03:53;18.73;;;5.47;;
16101;SDS011;56411;52.964;10.540;2023-04-25T05:06:25;24.97;;;6.30;;
16101;SDS011;56411;52.964;10.540;2023-04-25T05:08:53;23.67;;;6.03;;
16101;SDS011;56411;52.964;10.540;2023-04-25T05:11:21;28.03;;;6.60;;
16101;SDS011;56411;52.964;10.540;2023-04-25T05:13:49;23.83;;;6.33;;
16101;SDS011;56411;52.964;10.540;2023-04-25T05:16:20;19.03;;;5.90;;
16101;SDS011;56411;52.964;10.540;2023-04-25T05:18:47;22.80;;;5.10;;
16101;SDS011;56411;52.964;10.540;2023-04-25T05:21:15;23.70;;;5.27;;
16101;SDS011;56411;52.964;10.540;2023-04-25T05:23:42;21.93;;;5.53;;
16101;SDS011;56411;52.964;10.540;2023-04-25T05:26:10;23.53;;;5.80;;
16101;SDS011;56411;52.964;10.540;2023-04-25T05:28:38;23.00;;;5.43;;
16101;SDS011;56411;52.964;10.540;2023-04-25T05:31:06;22.17;;;6.33;;
16101;SDS011;56411;52.964;10.540;2023-04-25T05:33:34;22.60;;;6.33;;
16101;SDS011;56411;52.964;10.540;2023-04-25T05:36:04;19.23;;;5.40;;
16101;SDS011;56411;52.964;10.540;2023-04-25T05:38:33;21.13;;;5.30;;
16101;SDS011;56411;52.964;10.540;2023-04-25T05:41:00;19.90;;;5.50;;
16101;SDS011;56411;52.964;10.540;2023-04-25T05:43:27;22.93;;;5.00;;
16101;SDS011;56411;52.964;10.540;2023-04-25T05:45:55;19.63;;;5.37;;
16101;SDS011;56411;52.964;10.540;2023-04-25T05:48:22;19.07;;;5.13;;
16101;SDS011;56411;52.964;10.540;2023-04-25T05:50:49;20.67;;;4.97;;
16101;SDS011;56411;52.964;10.540;2023-04-25T05:53:16;21.77;;;5.30;;
16101;SDS011;56411;52.964;10.540;2023-04-25T05:55:45;21.10;;;5.50;;
16101;SDS011;56411;52.964;10.540;2023-04-25T05:58:12;18.90;;;5.27;;
16101;SDS011;56411;52.964;10.540;2023-04-25T06:00:39;16.00;;;4.63;;
16101;SDS011;56411;52.964;10.540;2023-04-25T06:03:07;19.80;;;5.00;;
16101;SDS011;56411;52.964;10.540;2023-04-25T06:05:34;20.20;;;5.00;;
16101;SDS011;56411;52.964;10.540;2023-04-25T06:08:01;21.50;;;4.70;;
16101;SDS011;56411;52.964;10.540;2023-04-25T06:10:29;18.13;;;4.60;;
16101;SDS011;56411;52.964;10.540;2023-04-25T06:12:57;18.30;;;4.03;;
16101;SDS011;56411;52.964;10.540;2023-04-25T06:15:24;20.00;;;4.47;;
16101;SDS011;56411;52.964;10.540;2023-04-25T06:17:52;17.80;;;4.43;;
16101;SDS011;56411;52.964;10.540;2023-04-25T06:20:19;16.50;;;4.37;;
16101;SDS011;56411;52.964;10.540;2023-04-25T06:22:48;21.07;;;5.27;;
16101;SDS011;56411;52.964;10.540;2023-04-25T06:25:15;22.63;;;4.60;;
16101;SDS011;56411;52.964;10.540;2023-04-25T06:27:42;18.20;;;4.80;;
16101;SDS011;56411;52.964;10.540;2023-04-25T06:30:11;17.87;;;4.43;;
16101;SDS011;56411;52.964;10.540;2023-04-25T06:32:39;17.43;;;4.53;;
16101;SDS011;56411;52.964;10.540;2023-04-25T06:35:06;16.50;;;4.20;;
16101;SDS011;56411;52.964;10.540;2023-04-25T06:37:33;17.57;;;4.27;;
16101;SDS011;56411;52.964;10.540;2023-04-25T06:40:00;19.07;;;4.00;;
16101;SDS011;56411;52.964;10.540;2023-04-25T06:42:27;14.73;;;3.93;;
16101;SDS011;56411;52.964;10.540;2023-04-25T06:44:54;16.83;;;3.90;;
16101;SDS011;56411;52.964;10.540;2023-04-25T06:47:23;13.50;;;3.30;;
16101;SDS011;56411;52.964;10.540;2023-04-25T06:49:50;15.37;;;4.07;;
16101;SDS011;56411;52.964;10.540;2023-04-25T06:52:17;16.93;;;3.67;;
16101;SDS011;56411;52.964;10.540;2023-04-25T06:54:44;15.87;;;3.77;;
16101;SDS011;56411;52.964;10.540;2023-04-25T06:57:11;14.00;;;3.23;;
16101;SDS011;56411;52.964;10.540;2023-04-25T06:59:38;13.20;;;3.20;;
16101;SDS011;56411;52.964;10.540;2023-04-25T07:02:05;17.07;;;3.80;;
16101;SDS011;56411;52.964;10.540;2023-04-25T07:04:34;14.13;;;3.67;;
16101;SDS011;56411;52.964;10.540;2023-04-25T07:07:01;15.47;;;3.53;;
16101;SDS011;56411;52.964;10.540;2023-04-25T07:09:28;13.03;;;3.30;;
16101;SDS011;56411;52.964;10.540;2023-04-25T07:11:58;15.40;;;4.17;;
16101;SDS011;56411;52.964;10.540;2023-04-25T07:14:26;15.70;;;3.70;;
16101;SDS011;56411;52.964;10.540;2023-04-25T07:16:53;16.73;;;3.93;;
16101;SDS011;56411;52.964;10.540;2023-04-25T07:19:22;15.17;;;4.10;;
16101;SDS011;56411;52.964;10.540;2023-04-25T07:21:53;15.97;;;4.20;;
16101;SDS011;56411;52.964;10.540;2023-04-25T07:24:20;15.90;;;3.40;;
16101;SDS011;56411;52.964;10.540;2023-04-25T07:26:47;17.37;;;4.53;;
16101;SDS011;56411;52.964;10.540;2023-04-25T07:29:15;16.83;;;3.97;;
16101;SDS011;56411;52.964;10.540;2023-04-25T07:31:42;17.50;;;3.70;;
16101;SDS011;56411;52.964;10.540;2023-04-25T07:34:09;15.57;;;3.10;;
16101;SDS011;56411;52.964;10.540;2023-04-25T07:36:36;19.57;;;4.00;;
16101;SDS011;56411;52.964;10.540;2023-04-25T07:39:04;13.23;;;3.67;;
16101;SDS011;56411;52.964;10.540;2023-04-25T07:41:31;17.23;;;3.90;;
16101;SDS011;56411;52.964;10.540;2023-04-25T07:43:59;15.40;;;3.67;;
16101;SDS011;56411;52.964;10.540;2023-04-25T07:46:27;15.70;;;4.13;;
16101;SDS011;56411;52.964;10.540;2023-04-25T07:48:54;17.57;;;3.97;;
16101;SDS011;56411;52.964;10.540;2023-04-25T07:51:21;10.20;;;2.93;;
16101;SDS011;56411;52.964;10.540;2023-04-25T07:53:48;13.73;;;3.43;;
16101;SDS011;56411;52.964;10.540;2023-04-25T07:56:17;13.03;;;3.23;;
16101;SDS011;56411;52.964;10.540;2023-04-25T07:58:44;18.33;;;3.73;;
16101;SDS011;56411;52.964;10.540;2023-04-25T08:01:11;14.03;;;3.27;;
16101;SDS011;56411;52.964;10.540;2023-04-25T08:03:38;12.10;;;3.67;;
16101;SDS011;56411;52.964;10.540;2023-04-25T08:06:05;16.50;;;3.73;;
16101;SDS011;56411;52.964;10.540;2023-04-25T08:08:32;15.93;;;3.67;;
16101;SDS011;56411;52.964;10.540;2023-04-25T08:10:59;14.47;;;3.60;;
16101;SDS011;56411;52.964;10.540;2023-04-25T08:13:27;13.67;;;3.30;;
16101;SDS011;56411;52.964;10.540;2023-04-25T08:15:55;14.63;;;3.50;;
16101;SDS011;56411;52.964;10.540;2023-04-25T08:18:22;16.43;;;3.73;;
16101;SDS011;56411;52.964;10.540;2023-04-25T08:20:49;17.10;;;3.80;;
16101;SDS011;56411;52.964;10.540;2023-04-25T08:23:16;13.57;;;3.60;;
16101;SDS011;56411;52.964;10.540;2023-04-25T08:25:43;15.77;;;3.70;;
16101;SDS011;56411;52.964;10.540;2023-04-25T08:28:10;14.97;;;3.50;;
16101;SDS011;56411;52.964;10.540;2023-04-25T08:30:38;14.50;;;3.50;;
16101;SDS011;56411;52.964;10.540;2023-04-25T08:33:05;13.00;;;3.47;;
16101;SDS011;56411;52.964;10.540;2023-04-25T08:35:32;12.17;;;3.60;;
16101;SDS011;56411;52.964;10.540;2023-04-25T08:38:00;15.47;;;3.97;;
16101;SDS011;56411;52.964;10.540;2023-04-25T08:40:27;13.80;;;3.63;;
16101;SDS011;56411;52.964;10.540;2023-04-25T08:42:55;14.83;;;3.47;;
16101;SDS011;56411;52.964;10.540;2023-04-25T08:45:24;13.87;;;3.30;;
16101;SDS011;56411;52.964;10.540;2023-04-25T08:47:54;14.33;;;3.27;;
16101;SDS011;56411;52.964;10.540;2023-04-25T08:50:24;12.37;;;3.47;;
16101;SDS011;56411;52.964;10.540;2023-04-25T08:52:51;16.10;;;3.37;;
16101;SDS011;56411;52.964;10.540;2023-04-25T08:55:26;12.87;;;2.90;;
16101;SDS011;56411;52.964;10.540;2023-04-25T08:57:56;14.90;;;3.23;;
16101;SDS011;56411;52.964;10.540;2023-04-25T09:00:25;13.37;;;3.23;;
16101;SDS011;56411;52.964;10.540;2023-04-25T09:02:54;13.73;;;3.57;;
16101;SDS011;56411;52.964;10.540;2023-04-25T09:05:21;10.80;;;3.10;;
16101;SDS011;56411;52.964;10.540;2023-04-25T09:07:49;12.13;;;3.17;;
16101;SDS011;56411;52.964;10.540;2023-04-25T09:10:16;9.73;;;3.17;;
16101;SDS011;56411;52.964;10.540;2023-04-25T09:12:43;10.97;;;2.80;;
16101;SDS011;56411;52.964;10.540;2023-04-25T09:15:11;11.73;;;3.20;;
16101;SDS011;56411;52.964;10.540;2023-04-25T09:17:41;15.70;;;3.17;;
16101;SDS011;56411;52.964;10.540;2023-04-25T09:20:11;12.93;;;2.87;;
16101;SDS011;56411;52.964;10.540;2023-04-25T09:22:40;11.37;;;2.90;;
16101;SDS011;56411;52.964;10.540;2023-04-25T09:25:08;10.50;;;2.80;;
16101;SDS011;56411;52.964;10.540;2023-04-25T09:27:36;9.87;;;3.10;;
16101;SDS011;56411;52.964;10.540;2023-04-25T09:30:17;11.00;;;2.90;;
16101;SDS011;56411;52.964;10.540;2023-04-25T09:32:44;12.53;;;3.03;;
16101;SDS011;56411;52.964;10.540;2023-04-25T09:35:12;12.13;;;2.70;;
16101;SDS011;56411;52.964;10.540;2023-04-25T09:37:50;10.40;;;2.80;;
16101;SDS011;56411;52.964;10.540;2023-04-25T09:40:17;10.83;;;2.90;;
16101;SDS011;56411;52.964;10.540;2023-04-25T09:42:45;12.93;;;2.80;;
16101;SDS011;56411;52.964;10.540;2023-04-25T09:45:12;10.00;;;2.60;;
16101;SDS011;56411;52.964;10.540;2023-04-25T09:47:41;13.67;;;3.60;;
16101;SDS011;56411;52.964;10.540;2023-04-25T09:50:14;13.23;;;3.17;;
16101;SDS011;56411;52.964;10.540;2023-04-25T09:52:44;14.60;;;3.47;;
16101;SDS011;56411;52.964;10.540;2023-04-25T09:55:11;10.83;;;2.93;;
16101;SDS011;56411;52.964;10.540;2023-04-25T09:57:38;10.80;;;2.73;;
16101;SDS011;56411;52.964;10.540;2023-04-25T10:00:07;13.37;;;2.90;;
16101;SDS011;56411;52.964;10.540;2023-04-25T10:02:37;7.50;;;2.43;;
16101;SDS011;56411;52.964;10.540;2023-04-25T10:05:08;6.97;;;1.90;;
16101;SDS011;56411;52.964;10.540;2023-04-25T10:07:38;8.37;;;2.10;;
16101;SDS011;56411;52.964;10.540;2023-04-25T10:10:06;4.90;;;1.67;;
16101;SDS011;56411;52.964;10.540;2023-04-25T10:12:34;5.23;;;1.90;;
16101;SDS011;56411;52.964;10.540;2023-04-25T10:15:02;6.97;;;2.20;;
16101;SDS011;56411;52.964;10.540;2023-04-25T10:17:30;7.90;;;2.27;;
16101;SDS011;56411;52.964;10.540;2023-04-25T10:19:59;7.80;;;2.50;;
16101;SDS011;56411;52.964;10.540;2023-04-25T10:22:29;9.67;;;2.20;;
16101;SDS011;56411;52.964;10.540;2023-04-25T10:25:00;8.43;;;2.30;;
16101;SDS011;56411;52.964;10.540;2023-04-25T10:27:29;12.83;;;2.97;;
16101;SDS011;56411;52.964;10.540;2023-04-25T10:30:00;7.80;;;2.20;;
16101;SDS011;56411;52.964;10.540;2023-04-25T10:32:30;13.37;;;3.23;;
16101;SDS011;56411;52.964;10.540;2023-04-25T10:34:57;11.57;;;2.47;;
16101;SDS011;56411;52.964;10.540;2023-04-25T10:37:36;8.27;;;3.33;;
16101;SDS011;56411;52.964;10.540;2023-04-25T10:40:09;8.37;;;2.40;;
16101;SDS011;56411;52.964;10.540;2023-04-25T10:42:36;8.03;;;2.10;;
16101;SDS011;56411;52.964;10.540;2023-04-25T10:45:04;9.87;;;2.07;;
16101;SDS011;56411;52.964;10.540;2023-04-25T10:47:36;6.50;;;2.13;;
16101;SDS011;56411;52.964;10.540;2023-04-25T10:50:09;9.27;;;2.37;;
16101;SDS011;56411;52.964;10.540;2023-04-25T10:52:38;6.40;;;2.00;;
16101;SDS011;56411;52.964;10.540;2023-04-25T10:55:06;9.50;;;2.23;;
16101;SDS011;56411;52.964;10.540;2023-04-25T10:57:38;7.40;;;2.00;;
16101;SDS011;56411;52.964;10.540;2023-04-25T11:00:13;6.17;;;2.00;;
16101;SDS011;56411;52.964;10.540;2023-04-25T11:02:41;6.23;;;2.00;;
16101;SDS011;56411;52.964;10.540;2023-04-25T11:05:14;8.90;;;2.37;;
16101;SDS011;56411;52.964;10.540;2023-04-25T11:07:51;9.30;;;2.10;;
16101;SDS011;56411;52.964;10.540;2023-04-25T11:10:24;6.40;;;1.80;;
16101;SDS011;56411;52.964;10.540;2023-04-25T11:12:53;6.70;;;1.90;;
16101;SDS011;56411;52.964;10.540;2023-04-25T11:15:21;6.67;;;2.20;;
16101;SDS011;56411;52.964;10.540;2023-04-25T11:17:48;3.90;;;1.83;;
16101;SDS011;56411;52.964;10.540;2023-04-25T11:20:17;10.30;;;2.50;;
16101;SDS011;56411;52.964;10.540;2023-04-25T11:22:44;4.57;;;1.60;;
16101;SDS011;56411;52.964;10.540;2023-04-25T11:25:13;7.70;;;2.10;;
16101;SDS011;56411;52.964;10.540;2023-04-25T11:27:50;8.83;;;2.20;;
16101;SDS011;56411;52.964;10.540;2023-04-25T11:30:21;6.47;;;2.27;;
16101;SDS011;56411;52.964;10.540;2023-04-25T11:32:49;8.57;;;2.43;;
16101;SDS011;56411;52.964;10.540;2023-04-25T11:35:17;9.37;;;2.63;;
16101;SDS011;56411;52.964;10.540;2023-04-25T11:37:45;9.50;;;2.17;;
16101;SDS011;56411;52.964;10.540;2023-04-25T11:40:12;8.60;;;2.30;;
16101;SDS011;56411;52.964;10.540;2023-04-25T11:42:43;7.90;;;2.53;;
16101;SDS011;56411;52.964;10.540;2023-04-25T11:45:13;7.13;;;2.10;;
16101;SDS011;56411;52.964;10.540;2023-04-25T11:47:40;8.70;;;2.27;;
16101;SDS011;56411;52.964;10.540;2023-04-25T11:50:08;10.40;;;2.40;;
16101;SDS011;56411;52.964;10.540;2023-04-25T11:52:39;6.97;;;2.13;;
16101;SDS011;56411;52.964;10.540;2023-04-25T11:55:08;7.30;;;1.93;;
16101;SDS011;56411;52.964;10.540;2023-04-25T11:57:37;10.87;;;2.63;;
16101;SDS011;56411;52.964;10.540;2023-04-25T12:00:07;7.57;;;2.07;;
16101;SDS011;56411;52.964;10.540;2023-04-25T12:02:37;8.20;;;2.27;;
16101;SDS011;56411;52.964;10.540;2023-04-25T12:05:07;6.33;;;1.80;;
16101;SDS011;56411;52.964;10.540;2023-04-25T12:07:35;8.20;;;2.20;;
16101;SDS011;56411;52.964;10.540;2023-04-25T12:10:06;7.23;;;2.20;;
16101;SDS011;56411;52.964;10.540;2023-04-25T12:12:34;5.82;;;1.83;;
16101;SDS011;56411;52.964;10.540;2023-04-25T12:15:10;5.40;;;2.07;;
16101;SDS011;56411;52.964;10.540;2023-04-25T12:17:42;7.13;;;2.20;;
16101;SDS011;56411;52.964;10.540;2023-04-25T12:20:12;8.68;;;2.70;;
16101;SDS011;56411;52.964;10.540;2023-04-25T12:22:40;7.63;;;2.10;;
16101;SDS011;56411;52.964;10.540;2023-04-25T12:25:10;4.03;;;1.60;;
16101;SDS011;56411;52.964;10.540;2023-04-25T12:27:38;6.53;;;2.00;;
16101;SDS011;56411;52.964;10.540;2023-04-25T12:30:07;8.47;;;2.17;;
16101;SDS011;56411;52.964;10.540;2023-04-25T12:32:35;12.63;;;3.13;;
16101;SDS011;56411;52.964;10.540;2023-04-25T12:35:05;7.30;;;2.10;;
16101;SDS011;56411;52.964;10.540;2023-04-25T12:37:33;10.67;;;2.60;;
16101;SDS011;56411;52.964;10.540;2023-04-25T12:40:00;11.10;;;2.20;;
16101;SDS011;56411;52.964;10.540;2023-04-25T12:42:33;11.37;;;2.87;;
16101;SDS011;56411;52.964;10.540;2023-04-25T12:45:00;8.00;;;2.17;;
16101;SDS011;56411;52.964;10.540;2023-04-25T12:47:27;8.67;;;2.33;;
16101;SDS011;56411;52.964;10.540;2023-04-25T12:49:54;9.70;;;2.23;;
16101;SDS011;56411;52.964;10.540;2023-04-25T12:52:23;7.63;;;2.30;;
16101;SDS011;56411;52.964;10.540;2023-04-25T12:54:50;11.83;;;2.30;;
16101;SDS011;56411;52.964;10.540;2023-04-25T12:57:17;8.80;;;2.33;;
16101;SDS011;56411;52.964;10.540;2023-04-25T12:59:45;9.20;;;2.20;;
16101;SDS011;56411;52.964;10.540;2023-04-25T13:02:12;8.60;;;2.33;;
16101;SDS011;56411;52.964;10.540;2023-04-25T13:04:39;10.20;;;2.83;;
16101;SDS011;56411;52.964;10.540;2023-04-25T13:07:06;7.07;;;2.00;;
16101;SDS011;56411;52.964;10.540;2023-04-25T13:09:34;7.70;;;1.90;;
16101;SDS011;56411;52.964;10.540;2023-04-25T13:12:03;7.65;;;2.42;;
16101;SDS011;56411;52.964;10.540;2023-04-25T13:14:30;6.83;;;2.33;;
16101;SDS011;56411;52.964;10.540;2023-04-25T13:16:57;7.73;;;2.13;;
16101;SDS011;56411;52.964;10.540;2023-04-25T13:19:24;9.70;;;2.27;;
16101;SDS011;56411;52.964;10.540;2023-04-25T13:21:51;8.27;;;2.00;;
16101;SDS011;56411;52.964;10.540;2023-04-25T13:24:18;8.30;;;2.10;;
16101;SDS011;56411;52.964;10.540;2023-04-25T13:26:47;7.83;;;2.37;;
16101;SDS011;56411;52.964;10.540;2023-04-25T13:29:15;7.00;;;1.90;;
16101;SDS011;56411;52.964;10.540;2023-04-25T13:31:42;9.30;;;2.20;;
16101;SDS011;56411;52.964;10.540;2023-04-25T13:34:09;7.10;;;2.10;;
16101;SDS011;56411;52.964;10.540;2023-04-25T13:36:37;7.93;;;2.03;;
16101;SDS011;56411;52.964;10.540;2023-04-25T13:39:05;6.80;;;2.50;;
16101;SDS011;56411;52.964;10.540;2023-04-25T13:41:32;7.23;;;2.50;;
16101;SDS011;56411;52.964;10.540;2023-04-25T13:44:01;6.20;;;2.30;;
16101;SDS011;56411;52.964;10.540;2023-04-25T13:46:28;6.43;;;1.80;;
16101;SDS011;56411;52.964;10.540;2023-04-25T13:48:55;5.80;;;1.77;;
16101;SDS011;56411;52.964;10.540;2023-04-25T13:51:21;5.87;;;1.90;;
16101;SDS011;56411;52.964;10.540;2023-04-25T13:53:48;10.77;;;3.03;;
16101;SDS011;56411;52.964;10.540;2023-04-25T13:56:16;5.37;;;1.70;;
16101;SDS011;56411;52.964;10.540;2023-04-25T13:58:44;5.27;;;2.00;;
16101;SDS011;56411;52.964;10.540;2023-04-25T14:01:13;6.13;;;1.90;;
16101;SDS011;56411;52.964;10.540;2023-04-25T14:03:44;6.10;;;2.20;;
16101;SDS011;56411;52.964;10.540;2023-04-25T14:06:11;5.40;;;1.60;;
16101;SDS011;56411;52.964;10.540;2023-04-25T14:08:38;5.93;;;1.90;;
16101;SDS011;56411;52.964;10.540;2023-04-25T14:11:05;9.83;;;1.70;;
16101;SDS011;56411;52.964;10.540;2023-04-25T14:13:32;7.07;;;1.87;;
16101;SDS011;56411;52.964;10.540;2023-04-25T14:15:59;7.13;;;1.80;;
16101;SDS011;56411;52.964;10.540;2023-04-25T14:18:28;4.47;;;1.63;;
16101;SDS011;56411;52.964;10.540;2023-04-25T14:20:55;9.60;;;2.10;;
16101;SDS011;56411;52.964;10.540;2023-04-25T14:23:22;10.37;;;2.20;;
16101;SDS011;56411;52.964;10.540;2023-04-25T14:25:50;8.67;;;2.20;;
16101;SDS011;56411;52.964;10.540;2023-04-25T14:28:17;7.90;;;2.10;;
16101;SDS011;56411;52.964;10.540;2023-04-25T14:30:44;6.80;;;2.10;;
16101;SDS011;56411;52.964;10.540;2023-04-25T14:33:11;7.10;;;2.30;;
16101;SDS011;56411;52.964;10.540;2023-04-25T14:35:40;6.57;;;1.90;;
16101;SDS011;56411;52.964;10.540;2023-04-25T14:38:08;9.10;;;2.00;;
16101;SDS011;56411;52.964;10.540;2023-04-25T14:40:35;6.57;;;1.90;;